Time;durP1;ratioP1;P1;durP2;ratioP2;P2;SDS_P1;SDS_P2;PMS_P1;PMS_P2;Temp;Humidity;BMP_temperature;BMP_pressure;BME280_temperature;BME280_humidity;BME280_pressure;Samples;Min_cycle;Max_cycle;Signal;HPM_P1;HPM_P2
2023/01/14 00:01:19;;;;;;;10.55;6.88;;;22.30;85.60;;;;;;6228052;28;88872;-69
2023/01/14 00:04:21;;;;;;;9.52;6.15;;;22.30;85.70;;;;;;6216880;28;88425;-69
2023/01/14 00:07:23;;;;;;;8.27;6.60;;;22.30;85.80;;;;;;6205419;28;89016;-70
2023/01/14 00:10:25;;;;;;;11.50;6.75;;;22.30;86.00;;;;;;6228567;28;89168;-69
2023/01/14 00:13:28;;;;;;;10.88;6.28;;;22.30;86.10;;;;;;6211612;28;90125;-69
2023/01/14 00:16:30;;;;;;;10.13;6.72;;;22.30;86.10;;;;;;6215653;28;89142;-69
2023/01/14 00:19:32;;;;;;;8.82;6.20;;;22.30;86.10;;;;;;6214953;28;87826;-69
2023/01/14 00:22:34;;;;;;;10.18;6.40;;;22.20;86.10;;;;;;6215861;28;89203;-69
2023/01/14 00:25:37;;;;;;;7.50;6.22;;;22.30;86.10;;;;;;6229732;28;89122;-69
2023/01/14 00:28:41;;;;;;;9.85;6.22;;;22.20;86.10;;;;;;6205110;28;89386;-68
2023/01/14 00:31:43;;;;;;;7.72;6.22;;;22.20;86.00;;;;;;6226520;28;89116;-70
2023/01/14 00:34:45;;;;;;;7.05;5.70;;;22.20;85.90;;;;;;6216564;28;88619;-69
2023/01/14 00:37:47;;;;;;;8.52;5.68;;;22.20;85.80;;;;;;6226921;28;89110;-69
2023/01/14 00:40:49;;;;;;;7.82;6.20;;;22.20;85.70;;;;;;6223103;28;89216;-68
2023/01/14 00:43:54;;;;;;;7.65;5.57;;;22.20;85.70;;;;;;6208158;28;88990;-69
2023/01/14 00:46:56;;;;;;;8.40;6.00;;;22.20;85.80;;;;;;6227722;28;89048;-67
2023/01/14 00:50:00;;;;;;;6.53;5.32;;;22.20;85.70;;;;;;6228196;28;89212;-68
2023/01/14 00:53:02;;;;;;;7.05;5.45;;;22.20;85.70;;;;;;6216005;28;88326;-69
2023/01/14 00:56:04;;;;;;;7.10;5.40;;;22.20;85.70;;;;;;6222807;28;87981;-69
2023/01/14 00:59:11;;;;;;;7.32;5.65;;;22.20;85.70;;;;;;6220993;28;87992;-69
2023/01/14 01:02:13;;;;;;;6.95;5.70;;;22.20;85.70;;;;;;6211722;28;89090;-69
2023/01/14 01:05:15;;;;;;;8.00;5.50;;;22.10;85.50;;;;;;6218322;28;87256;-69
2023/01/14 01:08:19;;;;;;;6.65;5.20;;;22.20;85.50;;;;;;6217554;28;89148;-69
2023/01/14 01:11:21;;;;;;;7.90;5.20;;;22.10;85.40;;;;;;6220609;28;89203;-69
2023/01/14 01:14:25;;;;;;;8.40;5.40;;;22.10;85.30;;;;;;6216063;28;90322;-69
2023/01/14 01:17:28;;;;;;;7.50;5.55;;;22.10;85.40;;;;;;6214604;28;89051;-69
2023/01/14 01:20:31;;;;;;;6.55;5.22;;;22.10;85.40;;;;;;6210166;28;88952;-68
2023/01/14 01:23:33;;;;;;;7.70;5.32;;;22.10;85.30;;;;;;6212002;28;89563;-69
2023/01/14 01:26:35;;;;;;;5.88;4.63;;;22.10;85.20;;;;;;6226800;28;89129;-68
2023/01/14 01:29:39;;;;;;;6.22;5.10;;;22.10;85.40;;;;;;6214618;28;89091;-69
2023/01/14 01:32:41;;;;;;;5.65;4.97;;;22.10;85.20;;;;;;6226807;28;88994;-69
2023/01/14 01:35:43;;;;;;;5.90;4.82;;;22.00;85.20;;;;;;6227440;28;88519;-69
2023/01/14 01:38:47;;;;;;;5.60;4.72;;;22.10;85.20;;;;;;6213605;28;89132;-69
2023/01/14 01:41:49;;;;;;;6.35;4.55;;;22.00;85.20;;;;;;6216573;28;89211;-68
2023/01/14 01:45:29;;;;;;;6.15;4.50;;;22.00;85.20;;;;;;6215757;28;89129;-69
2023/01/14 01:48:37;;;;;;;5.20;4.32;;;22.00;85.00;;;;;;6224654;28;89199;-68
2023/01/14 01:51:44;;;;;;;5.05;4.10;;;22.00;85.00;;;;;;6228968;28;89196;-69
2023/01/14 01:54:50;;;;;;;4.80;4.18;;;22.00;84.90;;;;;;6210433;28;89075;-68
2023/01/14 01:57:55;;;;;;;4.90;4.28;;;22.00;84.80;;;;;;6223785;28;89085;-68
2023/01/14 02:00:59;;;;;;;5.53;4.35;;;22.00;84.80;;;;;;6228443;28;87901;-68
2023/01/14 02:04:01;;;;;;;5.43;4.15;;;22.00;84.70;;;;;;6209383;28;89075;-68
2023/01/14 02:07:03;;;;;;;4.75;4.22;;;21.90;84.70;;;;;;6222150;28;88421;-68
2023/01/14 02:10:08;;;;;;;6.10;4.25;;;22.00;84.70;;;;;;6211687;28;88035;-68
2023/01/14 02:13:33;;;;;;;4.75;4.05;;;22.00;84.70;;;;;;6229432;28;89028;-68
2023/01/14 02:16:48;;;;;;;5.03;4.00;;;22.00;84.70;;;;;;6213314;28;90024;-68
2023/01/14 02:20:07;;;;;;;4.53;4.00;;;22.00;84.70;;;;;;6219805;28;89082;-69
2023/01/14 02:23:57;;;;;;;5.00;3.97;;;21.90;84.60;;;;;;6220751;28;89150;-69
2023/01/14 02:27:45;;;;;;;4.93;3.92;;;21.90;84.50;;;;;;6220477;28;89381;-68
2023/01/14 02:30:57;;;;;;;4.60;3.83;;;21.90;84.50;;;;;;6174421;28;89123;-68
2023/01/14 02:34:06;;;;;;;5.50;4.28;;;21.90;84.70;;;;;;6223669;28;88991;-70
2023/01/14 02:37:13;;;;;;;4.78;4.20;;;21.90;84.80;;;;;;6223526;28;89074;-69
2023/01/14 02:40:22;;;;;;;4.65;3.90;;;21.90;84.80;;;;;;6221927;28;88320;-68
2023/01/14 02:46:58;;;;;;;4.95;3.63;;;21.90;84.70;;;;;;6231501;28;87317;-68
2023/01/14 02:50:01;;;;;;;6.40;3.80;;;21.80;84.50;;;;;;6227239;28;89981;-69
2023/01/14 02:53:09;;;;;;;5.10;3.60;;;21.90;84.50;;;;;;6234488;28;89179;-68
2023/01/14 02:56:12;;;;;;;6.13;3.80;;;21.90;84.50;;;;;;6213953;28;89075;-68
2023/01/14 02:59:44;;;;;;;4.18;3.20;;;21.80;84.30;;;;;;6232918;28;89110;-68
2023/01/14 03:03:04;;;;;;;4.43;3.30;;;21.80;84.30;;;;;;6220713;28;88613;-68
2023/01/14 03:06:26;;;;;;;3.60;3.10;;;21.80;84.20;;;;;;6221806;28;89021;-68
2023/01/14 03:09:35;;;;;;;5.32;3.45;;;21.80;84.10;;;;;;6221916;28;89033;-68
2023/01/14 03:12:46;;;;;;;3.67;3.08;;;21.80;84.00;;;;;;6211149;28;88421;-68
2023/01/14 03:15:53;;;;;;;4.03;3.08;;;21.80;84.00;;;;;;6230771;28;89278;-68
2023/01/14 03:19:02;;;;;;;4.45;3.05;;;21.80;84.00;;;;;;6233267;28;87937;-68
2023/01/14 03:22:06;;;;;;;4.25;2.90;;;21.80;84.00;;;;;;6219408;28;90015;-68
2023/01/14 03:25:10;;;;;;;3.50;3.20;;;21.80;84.00;;;;;;6225759;28;89186;-68
2023/01/14 03:28:17;;;;;;;4.22;3.28;;;21.80;84.00;;;;;;6221165;28;89101;-68
2023/01/14 03:31:25;;;;;;;3.30;3.00;;;21.80;84.00;;;;;;6218906;28;89450;-69
2023/01/14 03:34:35;;;;;;;3.42;2.78;;;21.80;84.00;;;;;;6217041;28;89046;-68
2023/01/14 03:37:42;;;;;;;3.47;2.80;;;21.70;83.90;;;;;;6232701;28;89112;-68
2023/01/14 03:40:46;;;;;;;3.28;2.92;;;21.70;83.80;;;;;;6232670;28;89109;-68
2023/01/14 03:43:52;;;;;;;3.15;2.80;;;21.70;83.80;;;;;;6226976;28;87556;-68
2023/01/14 03:46:56;;;;;;;2.90;2.53;;;21.70;83.70;;;;;;6232315;28;89204;-68
2023/01/14 03:50:01;;;;;;;3.38;2.70;;;21.80;83.80;;;;;;6216008;28;87979;-68
2023/01/14 03:53:15;;;;;;;4.10;2.88;;;21.70;83.70;;;;;;6209261;28;90085;-69
2023/01/14 03:56:24;;;;;;;3.13;2.50;;;21.70;83.70;;;;;;6231775;28;89167;-68
2023/01/14 03:59:33;;;;;;;3.47;2.55;;;21.70;83.70;;;;;;6227603;28;88847;-68
2023/01/14 04:02:36;;;;;;;4.88;2.80;;;21.70;83.60;;;;;;6230747;28;89165;-68
2023/01/14 04:05:40;;;;;;;3.42;2.70;;;21.70;83.60;;;;;;6217443;28;89068;-68
2023/01/14 04:08:42;;;;;;;3.65;2.75;;;21.60;83.50;;;;;;6221021;28;88939;-68
2023/01/14 04:11:44;;;;;;;3.50;2.55;;;21.70;83.50;;;;;;6225508;28;88063;-68
2023/01/14 04:18:06;;;;;;;3.20;2.50;;;21.70;83.40;;;;;;6224225;28;87196;-68
2023/01/14 04:21:09;;;;;;;3.97;2.40;;;21.60;83.20;;;;;;6232414;28;89017;-68
2023/01/14 04:24:11;;;;;;;3.05;2.50;;;21.70;83.30;;;;;;6219790;28;90045;-68
2023/01/14 04:27:13;;;;;;;2.35;2.08;;;21.60;83.10;;;;;;6220733;28;88344;-68
2023/01/14 04:30:16;;;;;;;3.22;2.53;;;21.60;82.90;;;;;;6215371;28;89070;-68
2023/01/14 04:33:18;;;;;;;3.30;2.30;;;21.60;82.70;;;;;;6231748;28;89139;-68
2023/01/14 04:36:21;;;;;;;2.88;2.20;;;21.60;82.60;;;;;;6226936;28;88853;-68
2023/01/14 04:39:23;;;;;;;3.15;2.58;;;21.60;82.60;;;;;;6209291;28;89502;-68
2023/01/14 04:42:28;;;;;;;3.33;2.22;;;21.60;82.70;;;;;;6218440;28;89066;-68
2023/01/14 04:45:30;;;;;;;2.90;2.15;;;21.60;82.70;;;;;;6207313;28;88322;-68
2023/01/14 04:48:33;;;;;;;2.83;2.20;;;21.70;82.80;;;;;;6223337;28;89544;-68
2023/01/14 04:51:36;;;;;;;2.47;2.10;;;21.60;82.70;;;;;;6229190;28;89104;-68
2023/01/14 04:54:38;;;;;;;3.22;2.40;;;21.70;82.70;;;;;;6212613;28;90415;-68
2023/01/14 04:57:40;;;;;;;3.40;1.90;;;21.70;82.70;;;;;;6228035;28;89159;-69
2023/01/14 05:00:43;;;;;;;2.50;2.00;;;21.70;82.50;;;;;;6217870;28;89838;-69
2023/01/14 05:03:45;;;;;;;2.40;2.05;;;21.70;82.50;;;;;;6231381;28;89463;-69
2023/01/14 05:06:48;;;;;;;2.22;1.83;;;21.80;82.40;;;;;;6230749;28;89045;-68
2023/01/14 05:09:50;;;;;;;2.50;2.00;;;21.80;82.30;;;;;;6228130;28;87940;-69
2023/01/14 05:12:58;;;;;;;2.35;1.80;;;21.80;82.20;;;;;;6229257;28;88828;-69
2023/01/14 05:16:01;;;;;;;3.20;1.92;;;21.80;82.10;;;;;;6221206;28;88465;-68
2023/01/14 05:19:03;;;;;;;2.50;1.80;;;21.80;82.10;;;;;;6227995;28;89078;-68
2023/01/14 05:22:06;;;;;;;2.38;1.83;;;21.80;82.00;;;;;;6224838;28;89239;-68
2023/01/14 05:25:09;;;;;;;2.55;1.80;;;21.90;82.00;;;;;;6224644;28;90008;-69
2023/01/14 05:28:13;;;;;;;3.67;2.00;;;21.90;81.90;;;;;;6222153;28;89202;-68
2023/01/14 05:31:15;;;;;;;2.30;1.63;;;21.90;82.00;;;;;;6224243;28;89135;-69
2023/01/14 05:34:18;;;;;;;2.33;1.90;;;21.90;82.00;;;;;;6224737;28;89063;-68
2023/01/14 05:37:21;;;;;;;2.40;1.90;;;21.90;82.00;;;;;;6218195;28;88752;-68
2023/01/14 05:40:24;;;;;;;2.20;1.90;;;21.90;82.00;;;;;;6215507;28;87084;-67
2023/01/14 05:46:45;;;;;;;2.33;1.75;;;21.90;82.10;;;;;;6217186;28;86581;-68
2023/01/14 05:49:47;;;;;;;2.17;1.67;;;21.90;82.00;;;;;;6222664;28;87929;-68
2023/01/14 05:52:51;;;;;;;2.65;2.00;;;21.90;82.10;;;;;;6223083;28;88993;-69
2023/01/14 05:55:54;;;;;;;2.03;1.83;;;21.80;82.10;;;;;;6233170;28;90024;-68
2023/01/14 05:58:56;;;;;;;2.10;1.80;;;21.90;82.20;;;;;;6233877;28;88983;-68
2023/01/14 06:08:38;;;;;;;2.15;1.60;;;21.90;82.20;;;;;;6214616;28;87136;-69
2023/01/14 06:11:41;;;;;;;2.00;1.65;;;21.80;82.20;;;;;;6223314;28;88865;-69
2023/01/14 06:14:43;;;;;;;2.63;1.77;;;21.80;82.20;;;;;;6213332;28;89038;-69
2023/01/14 06:17:46;;;;;;;2.38;1.67;;;21.80;82.20;;;;;;6234006;28;88303;-69
2023/01/14 06:20:49;;;;;;;2.28;1.73;;;21.80;83.10;;;;;;6219987;28;87956;-68
2023/01/14 06:23:53;;;;;;;1.80;1.60;;;21.80;82.30;;;;;;6232337;28;89193;-69
2023/01/14 06:26:55;;;;;;;2.00;1.63;;;21.80;82.20;;;;;;6233755;28;90129;-69
2023/01/14 06:29:57;;;;;;;2.40;1.80;;;21.80;82.20;;;;;;6232969;28;89507;-69
2023/01/14 06:32:59;;;;;;;2.03;1.52;;;21.80;82.30;;;;;;6232829;28;88941;-69
2023/01/14 06:36:01;;;;;;;2.30;1.60;;;21.70;82.20;;;;;;6233370;28;89146;-68
2023/01/14 06:39:05;;;;;;;2.33;1.80;;;21.80;82.20;;;;;;6232815;28;89376;-69
2023/01/14 06:42:07;;;;;;;2.00;1.80;;;21.80;82.20;;;;;;6232654;28;88804;-69
2023/01/14 06:45:10;;;;;;;1.70;1.60;;;21.80;82.20;;;;;;6221870;28;89171;-70
2023/01/14 06:48:13;;;;;;;2.15;1.50;;;21.80;82.20;;;;;;6234208;28;88255;-69
2023/01/14 06:51:17;;;;;;;1.70;1.48;;;21.80;82.10;;;;;;6232761;28;88033;-69
2023/01/14 06:54:20;;;;;;;2.53;1.58;;;21.80;82.00;;;;;;6226117;28;89086;-69
2023/01/14 06:57:22;;;;;;;2.13;1.70;;;21.70;81.90;;;;;;6221462;28;90013;-68
2023/01/14 07:00:25;;;;;;;1.85;1.60;;;21.80;81.90;;;;;;6232688;28;89128;-69
2023/01/14 07:03:28;;;;;;;2.53;1.95;;;21.80;81.90;;;;;;6232758;28;89113;-68
2023/01/14 07:06:30;;;;;;;1.85;1.40;;;21.80;81.80;;;;;;6227973;28;88163;-68
2023/01/14 07:09:34;;;;;;;1.67;1.45;;;21.80;81.80;;;;;;6224332;28;89644;-68
2023/01/14 07:12:36;;;;;;;2.15;1.70;;;21.80;81.80;;;;;;6227478;28;89112;-68
2023/01/14 07:15:38;;;;;;;1.85;1.60;;;21.80;81.70;;;;;;6221203;28;89037;-68
2023/01/14 07:18:40;;;;;;;2.25;1.70;;;21.90;81.60;;;;;;6214613;28;88914;-67
2023/01/14 07:21:42;;;;;;;2.00;1.67;;;21.80;81.50;;;;;;6216506;28;89015;-68
2023/01/14 07:24:45;;;;;;;1.85;1.48;;;21.90;81.50;;;;;;6229802;28;89089;-68
2023/01/14 07:27:47;;;;;;;2.33;2.00;;;21.90;81.50;;;;;;6219968;28;88923;-68
2023/01/14 07:30:50;;;;;;;2.20;1.60;;;21.90;81.40;;;;;;6221640;28;87997;-69
2023/01/14 07:33:52;;;;;;;2.38;1.48;;;21.90;81.30;;;;;;6223039;28;90326;-68
2023/01/14 07:36:54;;;;;;;1.83;1.40;;;21.90;81.30;;;;;;6226315;28;88950;-68
2023/01/14 07:39:57;;;;;;;2.30;1.67;;;21.90;82.00;;;;;;6222818;28;88245;-69
2023/01/14 07:43:00;;;;;;;2.88;1.70;;;22.00;81.10;;;;;;6223414;28;89961;-67
2023/01/14 07:46:02;;;;;;;1.77;1.50;;;22.00;81.00;;;;;;6220799;28;89117;-68
2023/01/14 07:49:04;;;;;;;1.52;1.42;;;22.00;81.00;;;;;;6214753;28;87276;-68
2023/01/14 07:52:07;;;;;;;1.67;1.38;;;22.00;81.00;;;;;;6214025;28;89382;-68
2023/01/14 07:55:10;;;;;;;3.03;1.70;;;22.00;80.90;;;;;;6219120;28;89131;-68
2023/01/14 07:58:14;;;;;;;2.15;1.60;;;22.00;80.80;;;;;;6221561;28;90068;-68
2023/01/14 08:01:16;;;;;;;1.73;1.33;;;22.10;80.90;;;;;;6227508;28;89465;-69
2023/01/14 08:04:18;;;;;;;2.15;1.55;;;22.10;80.90;;;;;;6227952;28;89177;-68
2023/01/14 08:07:20;;;;;;;1.40;1.30;;;22.10;80.80;;;;;;6221876;28;89263;-68
2023/01/14 08:10:23;;;;;;;2.25;1.48;;;22.10;80.90;;;;;;6212133;28;89120;-68
2023/01/14 08:13:27;;;;;;;1.75;1.50;;;22.10;80.80;;;;;;6212179;28;89068;-68
2023/01/14 08:16:29;;;;;;;1.77;1.45;;;22.10;80.80;;;;;;6227290;28;89254;-68
2023/01/14 08:19:31;;;;;;;1.90;1.50;;;22.10;80.80;;;;;;6215190;28;88542;-68
2023/01/14 08:22:33;;;;;;;4.43;1.60;;;22.10;80.80;;;;;;6220456;28;89431;-68
2023/01/14 08:25:36;;;;;;;2.47;1.40;;;22.10;81.70;;;;;;6221350;28;89272;-69
2023/01/14 08:28:40;;;;;;;2.58;1.45;;;22.10;80.80;;;;;;6222220;28;89543;-69
2023/01/14 08:31:43;;;;;;;1.92;1.45;;;22.20;81.10;;;;;;6230945;28;89067;-70
2023/01/14 08:34:45;;;;;;;1.92;1.40;;;22.20;81.00;;;;;;6218128;28;89081;-69
2023/01/14 08:37:47;;;;;;;3.03;1.80;;;22.20;81.10;;;;;;6217922;28;88978;-70
2023/01/14 08:40:51;;;;;;;2.97;1.77;;;22.20;81.10;;;;;;6230297;28;89289;-70
2023/01/14 08:43:54;;;;;;;3.08;2.78;;;22.20;81.30;;;;;;6217108;28;89015;-69
2023/01/14 08:46:56;;;;;;;3.22;2.95;;;22.30;81.80;;;;;;6219993;28;87627;-69
2023/01/14 08:49:58;;;;;;;3.40;3.15;;;22.30;82.00;;;;;;6214973;28;88343;-69
2023/01/14 08:53:00;;;;;;;3.42;3.13;;;22.30;81.90;;;;;;6221213;28;89055;-69
2023/01/14 08:56:05;;;;;;;4.30;3.60;;;22.30;81.70;;;;;;6227954;28;89426;-69
2023/01/14 08:59:07;;;;;;;4.10;3.70;;;22.30;82.00;;;;;;6217630;28;88942;-71
2023/01/14 09:02:14;;;;;;;4.60;4.20;;;22.30;82.00;;;;;;6230976;28;89194;-70
2023/01/14 09:05:16;;;;;;;4.88;4.13;;;22.30;81.80;;;;;;6232208;28;89221;-70
2023/01/14 09:18:31;;;;;;;9.55;5.68;;;22.30;82.50;;;;;;6213296;28;87399;-71
2023/01/14 09:21:34;;;;;;;11.20;6.28;;;22.40;82.60;;;;;;6220823;28;87248;-70
2023/01/14 09:24:36;;;;;;;15.45;7.43;;;22.40;82.70;;;;;;6226435;28;89198;-76
2023/01/14 09:27:39;;;;;;;16.30;7.22;;;22.40;83.00;;;;;;6230620;28;88124;-71
2023/01/14 09:30:41;;;;;;;14.93;7.00;;;22.40;83.00;;;;;;6227920;28;90147;-71
2023/01/14 09:33:44;;;;;;;15.40;7.32;;;22.40;83.20;;;;;;6230440;28;89188;-70
2023/01/14 09:36:46;;;;;;;12.05;6.28;;;22.40;83.50;;;;;;6230842;28;89418;-70
2023/01/14 09:39:48;;;;;;;15.52;6.97;;;22.50;83.60;;;;;;6230505;28;89088;-71
2023/01/14 09:42:52;;;;;;;1071.90;423.70;;;22.50;84.20;;;;;;6230088;28;89543;-71
2023/01/14 09:45:59;;;;;;;349.13;110.60;;;22.60;92.50;;;;;;6213047;28;87089;-70
2023/01/14 09:49:04;;;;;;;228.23;64.53;;;22.60;94.40;;;;;;6219738;28;89013;-69
2023/01/14 09:52:38;;;;;;;131.20;39.72;;;22.60;91.80;;;;;;6225030;28;88357;-70
2023/01/14 09:55:45;;;;;;;82.13;26.48;;;22.70;90.00;;;;;;6214503;28;89104;-71
2023/01/14 09:58:53;;;;;;;65.13;19.02;;;22.70;86.50;;;;;;6229757;28;89938;-71
2023/01/14 10:02:01;;;;;;;46.60;16.00;;;22.80;85.30;;;;;;6222101;28;89322;-70
2023/01/14 10:05:17;;;;;;;40.35;14.20;;;22.80;84.70;;;;;;6229635;28;89337;-70
2023/01/14 10:08:21;;;;;;;40.33;13.38;;;22.80;84.90;;;;;;6224455;28;89171;-70
2023/01/14 10:11:27;;;;;;;38.55;13.13;;;22.80;86.70;;;;;;6220967;28;89265;-70
2023/01/14 10:14:39;;;;;;;35.90;12.98;;;22.80;86.70;;;;;;6222736;28;89184;-69
2023/01/14 10:17:45;;;;;;;33.78;11.27;;;22.80;85.80;;;;;;6224618;28;89055;-69
2023/01/14 10:20:54;;;;;;;30.67;11.07;;;22.80;85.70;;;;;;6226545;28;89135;-70
2023/01/14 10:23:56;;;;;;;31.02;10.25;;;22.70;86.10;;;;;;6222589;28;88426;-69
2023/01/14 10:26:58;;;;;;;27.15;10.20;;;22.70;85.70;;;;;;6214192;28;89168;-69
2023/01/14 10:30:17;;;;;;;22.17;9.80;;;22.70;85.50;;;;;;6219176;28;89158;-70
2023/01/14 10:33:22;;;;;;;23.40;8.90;;;22.70;85.50;;;;;;6222823;28;90255;-70
2023/01/14 10:36:29;;;;;;;22.80;8.30;;;22.70;85.40;;;;;;6227291;28;89370;-70
2023/01/14 10:39:31;;;;;;;26.15;8.98;;;22.70;84.40;;;;;;6220591;28;89315;-71
2023/01/14 10:42:33;;;;;;;21.30;8.68;;;22.70;89.70;;;;;;6220438;28;89061;-71
2023/01/14 10:45:38;;;;;;;22.10;7.90;;;22.70;88.10;;;;;;6228549;28;89117;-72
2023/01/14 10:48:51;;;;;;;18.90;7.75;;;22.70;83.20;;;;;;6232286;28;88957;-71
2023/01/14 10:51:53;;;;;;;26.92;8.80;;;22.70;83.00;;;;;;6221810;28;88943;-71
2023/01/14 10:54:59;;;;;;;22.70;9.02;;;22.80;83.30;;;;;;6231935;28;88287;-71
2023/01/14 10:58:07;;;;;;;24.73;9.00;;;22.80;83.50;;;;;;6217595;28;89530;-71
2023/01/14 11:01:13;;;;;;;22.50;9.13;;;22.80;83.30;;;;;;6223480;28;89031;-71
2023/01/14 11:04:16;;;;;;;21.58;8.30;;;22.80;83.40;;;;;;6230571;28;89996;-70
2023/01/14 11:07:28;;;;;;;21.33;9.02;;;22.80;83.60;;;;;;6217515;28;87146;-71
2023/01/14 11:10:31;;;;;;;19.75;8.60;;;22.90;83.70;;;;;;6229028;28;88087;-70
2023/01/14 11:13:36;;;;;;;26.40;9.13;;;22.90;83.70;;;;;;6237455;28;89110;-71
2023/01/14 11:16:39;;;;;;;24.77;9.05;;;22.90;83.80;;;;;;6215328;28;89089;-70
2023/01/14 11:19:42;;;;;;;27.85;9.10;;;22.90;84.10;;;;;;6223446;28;89197;-70
2023/01/14 11:22:44;;;;;;;23.08;8.55;;;22.90;84.00;;;;;;6219252;28;89183;-71
2023/01/14 11:25:50;;;;;;;24.40;8.20;;;22.80;84.00;;;;;;6205651;28;88412;-70
2023/01/14 11:28:54;;;;;;;24.88;7.78;;;22.80;84.00;;;;;;6229893;28;88969;-71
2023/01/14 11:32:05;;;;;;;19.83;7.82;;;22.80;83.90;;;;;;6229074;28;89080;-71
2023/01/14 11:35:19;;;;;;;30.83;9.65;;;22.90;84.00;;;;;;6219785;28;90289;-70
2023/01/14 11:38:22;;;;;;;27.25;9.25;;;22.80;84.30;;;;;;6221402;28;87987;-70
2023/01/14 11:41:36;;;;;;;28.52;9.88;;;22.80;84.50;;;;;;6205808;28;87988;-69
2023/01/14 11:44:39;;;;;;;23.52;9.25;;;22.80;84.90;;;;;;6208885;28;89087;-70
2023/01/14 11:47:48;;;;;;;23.73;8.57;;;22.80;85.00;;;;;;6226456;28;88962;-71
2023/01/14 11:50:56;;;;;;;21.55;8.70;;;22.80;84.90;;;;;;6223097;28;88796;-71
2023/01/14 11:53:58;;;;;;;20.27;7.70;;;22.80;84.80;;;;;;6209012;28;89034;-71
2023/01/14 11:57:02;;;;;;;20.50;7.90;;;22.80;84.30;;;;;;6219201;28;87896;-71
2023/01/14 12:00:05;;;;;;;22.70;8.27;;;22.80;84.70;;;;;;6218835;28;89228;-71
2023/01/14 12:03:29;;;;;;;19.05;7.90;;;22.80;84.70;;;;;;6221701;28;89119;-70
2023/01/14 12:06:38;;;;;;;21.42;7.63;;;22.80;84.70;;;;;;6226357;28;90662;-70
2023/01/14 12:09:47;;;;;;;20.02;7.38;;;22.80;84.70;;;;;;6215803;28;89124;-70
2023/01/14 12:19:44;;;;;;;21.73;7.30;;;22.80;84.70;;;;;;6216742;28;87371;-69
2023/01/14 12:22:53;;;;;;;15.10;6.85;;;22.80;84.50;;;;;;6217461;28;89001;-69
2023/01/14 12:25:58;;;;;;;16.85;6.63;;;22.80;84.50;;;;;;6218044;28;89137;-70
2023/01/14 12:29:04;;;;;;;18.55;6.90;;;22.80;84.50;;;;;;6220256;28;88606;-70
2023/01/14 12:32:11;;;;;;;17.30;6.65;;;22.80;84.60;;;;;;6231623;28;89920;-70
2023/01/14 12:35:16;;;;;;;15.98;6.50;;;22.80;84.50;;;;;;6231221;28;88020;-70
2023/01/14 12:45:44;;;;;;;13.07;5.85;;;22.90;84.20;;;;;;6088829;28;87781;-70
2023/01/14 12:48:46;;;;;;;16.27;6.25;;;22.80;84.20;;;;;;6142794;28;88961;-70
2023/01/14 12:51:50;;;;;;;16.15;5.90;;;22.80;83.90;;;;;;6228683;28;89089;-70
2023/01/14 12:54:53;;;;;;;13.90;5.82;;;22.90;84.00;;;;;;6227153;28;89088;-70
2023/01/14 12:57:58;;;;;;;13.63;5.55;;;22.90;83.80;;;;;;6211038;28;89111;-70
2023/01/14 13:01:04;;;;;;;15.75;5.82;;;22.90;83.80;;;;;;6219445;28;88319;-70
2023/01/14 13:04:17;;;;;;;12.10;5.45;;;22.90;83.70;;;;;;6207191;28;89137;-70
2023/01/14 13:07:26;;;;;;;15.15;6.15;;;22.90;83.60;;;;;;6224574;28;87144;-71
2023/01/14 13:10:31;;;;;;;11.73;5.55;;;22.90;83.50;;;;;;6227512;28;88874;-70
2023/01/14 13:13:36;;;;;;;10.73;5.00;;;22.90;83.40;;;;;;6217711;28;89051;-70
2023/01/14 13:16:41;;;;;;;11.73;5.72;;;22.90;83.40;;;;;;6231418;28;88867;-70
2023/01/14 13:19:52;;;;;;;14.85;5.60;;;22.90;83.20;;;;;;6209671;28;89061;-70
2023/01/14 13:22:56;;;;;;;11.75;5.35;;;22.90;83.20;;;;;;6213934;28;87981;-70
2023/01/14 13:25:58;;;;;;;11.68;5.13;;;22.90;83.20;;;;;;6224408;28;87786;-70
2023/01/14 13:29:19;;;;;;;10.82;5.15;;;23.00;83.30;;;;;;6224605;28;90581;-70
2023/01/14 13:32:52;;;;;;;10.05;5.05;;;22.90;83.30;;;;;;6212633;28;88766;-70
2023/01/14 13:36:21;;;;;;;10.57;5.07;;;23.00;83.20;;;;;;6148995;28;89162;-69
2023/01/14 13:39:24;;;;;;;10.73;4.97;;;22.90;83.10;;;;;;6193883;28;89019;-70
2023/01/14 13:42:31;;;;;;;11.05;4.70;;;22.90;83.10;;;;;;6218699;28;89950;-69
2023/01/14 13:45:36;;;;;;;7.88;4.28;;;22.90;83.10;;;;;;6218372;28;88974;-70
2023/01/14 13:48:40;;;;;;;10.88;4.43;;;23.00;83.10;;;;;;6220193;28;89548;-69
2023/01/14 13:51:46;;;;;;;10.60;4.57;;;23.00;83.10;;;;;;6234536;28;89097;-70
2023/01/14 13:54:55;;;;;;;10.52;4.55;;;23.00;82.90;;;;;;6219708;28;90122;-71
2023/01/14 13:58:00;;;;;;;9.93;4.70;;;22.90;82.80;;;;;;6212606;28;89257;-70
2023/01/14 14:01:26;;;;;;;9.55;4.38;;;22.90;82.80;;;;;;6222671;28;89156;-70
2023/01/14 14:05:03;;;;;;;7.72;3.75;;;23.00;82.80;;;;;;6219007;28;88565;-70
2023/01/14 14:08:23;;;;;;;9.20;4.30;;;23.00;82.80;;;;;;6233728;28;89652;-70
2023/01/14 14:11:29;;;;;;;8.57;4.22;;;22.90;82.70;;;;;;6226756;28;89118;-70
2023/01/14 14:14:34;;;;;;;8.27;4.25;;;22.90;82.70;;;;;;6226411;28;90043;-70
2023/01/14 14:17:42;;;;;;;8.20;4.40;;;22.90;82.70;;;;;;6220315;28;89124;-70
2023/01/14 14:20:46;;;;;;;8.50;4.00;;;23.00;82.50;;;;;;6220343;28;89117;-70
2023/01/14 14:23:51;;;;;;;8.38;4.32;;;22.90;82.40;;;;;;6228535;28;89370;-70
2023/01/14 14:26:55;;;;;;;7.32;3.85;;;22.90;82.40;;;;;;6223237;28;89051;-70
2023/01/14 14:30:05;;;;;;;7.65;3.90;;;22.90;82.30;;;;;;6221455;28;89365;-71
2023/01/14 14:33:07;;;;;;;6.38;3.83;;;22.90;82.30;;;;;;6234227;28;89540;-70
2023/01/14 14:36:15;;;;;;;8.13;3.90;;;22.90;82.30;;;;;;6233835;28;88525;-71
2023/01/14 14:39:23;;;;;;;7.07;3.67;;;22.90;82.30;;;;;;6234134;28;89103;-70
2023/01/14 14:42:26;;;;;;;8.73;3.95;;;22.90;82.30;;;;;;6222554;28;89164;-70
2023/01/14 14:45:31;;;;;;;8.02;3.75;;;22.90;82.20;;;;;;6233538;28;90745;-70
2023/01/14 14:48:36;;;;;;;8.05;3.90;;;22.90;82.20;;;;;;6210525;28;89326;-69
2023/01/14 14:51:45;;;;;;;6.82;3.83;;;22.90;82.10;;;;;;6221676;28;88104;-70
2023/01/14 14:54:48;;;;;;;7.50;3.70;;;22.90;82.00;;;;;;6228665;28;89354;-70
2023/01/14 14:57:52;;;;;;;7.82;3.95;;;22.90;82.00;;;;;;6232984;28;89114;-70
2023/01/14 15:00:56;;;;;;;7.85;4.03;;;22.90;82.00;;;;;;6232630;28;87998;-71
2023/01/14 15:03:58;;;;;;;7.82;3.50;;;23.00;82.00;;;;;;6233061;28;87973;-70
2023/01/14 15:07:02;;;;;;;6.25;3.65;;;22.90;81.90;;;;;;6224208;28;88112;-70
2023/01/14 15:10:05;;;;;;;6.20;3.50;;;22.90;81.90;;;;;;6213033;28;89047;-70
2023/01/14 15:13:18;;;;;;;6.22;3.42;;;22.90;81.80;;;;;;6220435;28;89391;-70
2023/01/14 15:16:24;;;;;;;7.28;3.70;;;22.80;81.80;;;;;;6225693;28;88906;-70
2023/01/14 15:19:28;;;;;;;6.65;3.60;;;22.90;81.90;;;;;;6226655;28;89290;-69
2023/01/14 15:22:38;;;;;;;5.85;3.65;;;22.90;81.80;;;;;;6233149;28;89106;-70
2023/01/14 15:25:41;;;;;;;5.35;3.15;;;22.90;81.80;;;;;;6233206;28;89482;-70
2023/01/14 15:28:45;;;;;;;5.75;2.80;;;22.90;81.80;;;;;;6232595;28;89183;-70
2023/01/14 15:31:48;;;;;;;5.30;3.22;;;22.90;81.70;;;;;;6211303;28;89231;-70
2023/01/14 15:34:50;;;;;;;6.45;3.40;;;22.90;81.70;;;;;;6207891;28;89190;-69
2023/01/14 15:37:54;;;;;;;6.03;3.45;;;22.80;81.60;;;;;;6227065;28;87628;-70
2023/01/14 15:40:56;;;;;;;5.00;3.00;;;22.90;81.60;;;;;;6220113;28;89174;-70
2023/01/14 15:44:00;;;;;;;5.63;2.97;;;22.90;81.60;;;;;;6220459;28;89162;-70
2023/01/14 15:47:02;;;;;;;5.55;3.15;;;22.90;81.60;;;;;;6229796;28;90101;-70
2023/01/14 15:50:05;;;;;;;5.07;3.17;;;22.80;81.60;;;;;;6230423;28;89647;-70
2023/01/14 15:53:16;;;;;;;4.97;3.00;;;22.90;81.60;;;;;;6225165;28;87896;-70
2023/01/14 15:56:21;;;;;;;7.05;3.20;;;22.80;81.50;;;;;;6208180;28;89098;-69
2023/01/14 15:59:26;;;;;;;5.57;3.20;;;22.80;81.50;;;;;;6212970;28;87959;-70
2023/01/14 16:02:28;;;;;;;5.57;3.08;;;22.80;81.40;;;;;;6232570;28;89193;-70
2023/01/14 16:05:36;;;;;;;6.47;3.00;;;22.80;81.40;;;;;;6232268;28;89089;-69
2023/01/14 16:08:38;;;;;;;4.40;3.10;;;22.80;81.30;;;;;;6223153;28;88351;-69
2023/01/14 16:11:43;;;;;;;5.13;3.08;;;22.80;82.20;;;;;;6223928;28;90720;-69
2023/01/14 16:14:46;;;;;;;4.55;2.90;;;22.80;81.30;;;;;;6218562;28;89494;-70
2023/01/14 16:17:48;;;;;;;4.05;2.80;;;22.80;81.30;;;;;;6215144;28;89968;-70
2023/01/14 16:20:52;;;;;;;4.25;2.63;;;22.80;81.20;;;;;;6220883;28;89136;-69
2023/01/14 16:23:54;;;;;;;5.20;2.83;;;22.80;81.30;;;;;;6231816;28;88844;-70
2023/01/14 16:26:56;;;;;;;4.05;2.75;;;22.80;81.10;;;;;;6231748;28;87977;-70
2023/01/14 16:30:00;;;;;;;4.80;2.97;;;22.80;81.10;;;;;;6224940;28;89078;-70
2023/01/14 16:33:02;;;;;;;4.13;2.90;;;22.80;81.10;;;;;;6229751;28;89217;-71
2023/01/14 16:36:04;;;;;;;5.03;3.03;;;22.90;81.30;;;;;;6226782;28;88995;-67
2023/01/14 16:39:13;;;;;;;9.10;3.38;;;22.80;81.50;;;;;;6231664;28;87243;-72
2023/01/14 16:42:15;;;;;;;8.80;3.20;;;22.90;81.90;;;;;;6227224;28;89374;-70